| time (UTC) | temp C | wind direction | speed KPH | gust KPH | rain 1hr cm | rain 24hr cm | rain mn cm | humidity % | barometer mb |
| 20260507185734 | 19 | 223 | 6.4 | 19.3 | 0.00 | 0.00 | 0.00 | 48 | 1013.0 |
| 20260507185236 | 19 | 260 | 4.8 | 16.1 | 0.00 | 0.00 | 0.00 | 50 | 1012.9 |
| 20260507184744 | 19 | 67 | 4.8 | 14.5 | 0.00 | 0.00 | 0.00 | 49 | 1013.1 |
| 20260507184234 | 19 | 302 | 4.8 | 16.1 | 0.00 | 0.00 | 0.00 | 49 | 1013.1 |
| 20260507183732 | 19 | 110 | 6.4 | 16.1 | 0.00 | 0.00 | 0.00 | 48 | 1013.1 |
| 20260507183233 | 18 | 246 | 6.4 | 17.7 | 0.00 | 0.00 | 0.00 | 50 | 1013.3 |
| 20260507182235 | 18 | 286 | 4.8 | 17.7 | 0.00 | 0.00 | 0.00 | 50 | 1013.5 |
| 20260507181731 | 18 | 205 | 4.8 | 14.5 | 0.00 | 0.00 | 0.00 | 51 | 1013.5 |
| 20260507181230 | 19 | 291 | 4.8 | 14.5 | 0.00 | 0.00 | 0.00 | 49 | 1013.5 |
| 20260507180731 | 19 | 226 | 3.2 | 11.3 | 0.00 | 0.00 | 0.00 | 49 | 1013.6 |
| 20260507180231 | 18 | 212 | 3.2 | 11.3 | 0.00 | 0.00 | 0.00 | 50 | 1013.7 |
| 20260507175730 | 18 | 273 | 4.8 | 12.9 | 0.00 | 0.00 | 0.00 | 49 | 1013.8 |
| 20260507175231 | 18 | 311 | 4.8 | 14.5 | 0.00 | 0.00 | 0.00 | 50 | 1013.9 |
| 20260507174728 | 17 | 234 | 4.8 | 14.5 | 0.00 | 0.00 | 0.00 | 52 | 1013.9 |
| 20260507174228 | 18 | 226 | 3.2 | 11.3 | 0.00 | 0.00 | 0.00 | 51 | 1014.0 |
| 20260507173727 | 18 | 194 | 3.2 | 11.3 | 0.00 | 0.00 | 0.00 | 50 | 1014.1 |
| 20260507173224 | 18 | 347 | 3.2 | 11.3 | 0.00 | 0.00 | 0.00 | 51 | 1014.2 |
| 20260507172723 | 18 | 9 | 4.8 | 14.5 | 0.00 | 0.00 | 0.00 | 50 | 1014.2 |
| 20260507172224 | 18 | 266 | 3.2 | 14.5 | 0.00 | 0.00 | 0.00 | 49 | 1014.3 |
| 20260507171225 | 18 | 356 | 3.2 | 12.9 | 0.00 | 0.00 | 0.00 | 50 | 1014.4 |
| 20260507170224 | 17 | 288 | 4.8 | 11.3 | 0.00 | 0.00 | 0.00 | 52 | 1014.5 |
| 20260507165725 | 18 | 315 | 4.8 | 12.9 | 0.00 | 0.00 | 0.00 | 51 | 1014.6 |
| 20260507165225 | 18 | 300 | 3.2 | 12.9 | 0.00 | 0.00 | 0.00 | 51 | 1014.6 |
| 20260507163222 | 17 | 317 | 4.8 | 19.3 | 0.00 | 0.00 | 0.00 | 51 | 1014.9 |
| 20260507162722 | 17 | 132 | 4.8 | 14.5 | 0.00 | 0.00 | 0.00 | 51 | 1014.9 |
| 20260507161720 | 17 | 63 | 6.4 | 16.1 | 0.00 | 0.00 | 0.00 | 53 | 1015.1 |
| 20260507161219 | 17 | 229 | 6.4 | 16.1 | 0.00 | 0.00 | 0.00 | 52 | 1015.1 |
| 20260507160720 | 17 | 269 | 4.8 | 14.5 | 0.00 | 0.00 | 0.00 | 52 | 1015.0 |
| 20260507155719 | 17 | 289 | 3.2 | 14.5 | 0.00 | 0.00 | 0.00 | 53 | 1015.1 |
| 20260507154719 | 17 | 217 | 4.8 | 14.5 | 0.00 | 0.00 | 0.00 | 54 | 1015.3 |
| 20260507154221 | 16 | 219 | 4.8 | 14.5 | 0.00 | 0.00 | 0.00 | 53 | 1015.2 |
| 20260507153719 | 16 | 0 | 3.2 | 12.9 | 0.00 | 0.00 | 0.00 | 55 | 1015.3 |
| 20260507153220 | 16 | 212 | 3.2 | 12.9 | 0.00 | 0.00 | 0.00 | 55 | 1015.5 |
| 20260507152719 | 16 | 0 | 3.2 | 12.9 | 0.00 | 0.00 | 0.00 | 55 | 1015.3 |
| 20260507151214 | 15 | 208 | 4.8 | 14.5 | 0.00 | 0.00 | 0.00 | 58 | 1015.5 |
| 20260507150214 | 15 | 0 | 3.2 | 9.7 | 0.00 | 0.00 | 0.00 | 59 | 1015.7 |
| 20260507145710 | 15 | 256 | 3.2 | 11.3 | 0.00 | 0.00 | 0.00 | 59 | 1015.7 |
| 20260507144209 | 14 | 0 | 3.2 | 12.9 | 0.00 | 0.00 | 0.00 | 62 | 1015.8 |
| 20260507143710 | 13 | 272 | 3.2 | 12.9 | 0.00 | 0.00 | 0.00 | 61 | 1015.9 |
| 20260507143210 | 13 | 84 | 1.6 | 4.8 | 0.00 | 0.00 | 0.00 | 61 | 1015.9 |
| 20260507142210 | 13 | 0 | 3.2 | 9.7 | 0.00 | 0.00 | 0.00 | 63 | 1015.8 |
| 20260507141710 | 12 | 192 | 3.2 | 9.7 | 0.00 | 0.00 | 0.00 | 65 | 1015.8 |
| 20260507141209 | 12 | 257 | 3.2 | 11.3 | 0.00 | 0.00 | 0.00 | 65 | 1015.8 |
| 20260507140711 | 12 | 356 | 1.6 | 11.3 | 0.00 | 0.00 | 0.00 | 65 | 1016.0 |
| 20260507140208 | 12 | 226 | 1.6 | 11.3 | 0.00 | 0.00 | 0.00 | 64 | 1016.0 |
| 20260507135709 | 12 | 240 | 1.6 | 6.4 | 0.00 | 0.00 | 0.00 | 66 | 1015.9 |
| 20260507135207 | 11 | 91 | 3.2 | 8.0 | 0.00 | 0.00 | 0.00 | 67 | 1015.9 |
| 20260507134707 | 11 | 291 | 3.2 | 9.7 | 0.00 | 0.00 | 0.00 | 67 | 1015.9 |
| 20260507134206 | 11 | 240 | 3.2 | 9.7 | 0.00 | 0.00 | 0.00 | 68 | 1015.9 |
| 20260507133710 | 11 | 0 | 3.2 | 8.0 | 0.00 | 0.00 | 0.00 | 69 | 1015.9 |
| 20260507133155 | 11 | 206 | 3.2 | 8.0 | 0.00 | 0.00 | 0.00 | 70 | 1015.9 |
| 20260507132654 | 10 | 246 | 3.2 | 8.0 | 0.00 | 0.00 | 0.00 | 70 | 1016.0 |
| 20260507131639 | 10 | 128 | 3.2 | 6.4 | 0.00 | 0.00 | 0.00 | 73 | 1016.0 |
| 20260507130641 | 10 | 183 | 3.2 | 6.4 | 0.00 | 0.00 | 0.00 | 72 | 1016.1 |
| 20260507130139 | 10 | 211 | 3.2 | 6.4 | 0.00 | 0.00 | 0.00 | 73 | 1016.1 |
| 20260507125139 | 9 | 117 | 3.2 | 4.8 | 0.00 | 0.00 | 0.00 | 74 | 1016.2 |
| 20260507124139 | 8 | 189 | 3.2 | 6.4 | 0.00 | 0.00 | 0.00 | 74 | 1016.2 |
| 20260507123639 | 8 | 284 | 3.2 | 8.0 | 0.00 | 0.00 | 0.00 | 73 | 1016.2 |
| 20260507123140 | 8 | 189 | 3.2 | 8.0 | 0.00 | 0.00 | 0.00 | 74 | 1016.2 |
| 20260507122639 | 8 | 205 | 3.2 | 8.0 | 0.00 | 0.00 | 0.00 | 74 | 1016.2 |
| 20260507122140 | 8 | 215 | 3.2 | 8.0 | 0.00 | 0.00 | 0.00 | 74 | 1016.3 |
| 20260507121639 | 8 | 230 | 3.2 | 6.4 | 0.00 | 0.00 | 0.00 | 75 | 1016.2 |
| 20260507121126 | 7 | 199 | 3.2 | 6.4 | 0.00 | 0.00 | 0.00 | 74 | 1016.2 |
| 20260507120625 | 7 | 5 | 3.2 | 6.4 | 0.00 | 0.00 | 0.00 | 75 | 1016.2 |
| 20260507120124 | 7 | 242 | 1.6 | 6.4 | 0.00 | 0.00 | 0.00 | 75 | 1016.1 |
| 20260507114111 | 7 | 230 | 1.6 | 4.8 | 0.00 | 0.00 | 0.00 | 75 | 1016.0 |
| 20260507113610 | 7 | 215 | 1.6 | 6.4 | 0.00 | 0.00 | 0.00 | 75 | 1016.1 |
| 20260507113110 | 7 | 283 | 1.6 | 6.4 | 0.00 | 0.00 | 0.00 | 75 | 1016.1 |
| 20260507112112 | 7 | 165 | 1.6 | 4.8 | 0.00 | 0.00 | 0.00 | 74 | 1016.1 |
| 20260507111610 | 7 | 196 | 1.6 | 4.8 | 0.00 | 0.00 | 0.00 | 73 | 1016.1 |
| 20260507111111 | 7 | 224 | 1.6 | 4.8 | 0.00 | 0.00 | 0.00 | 73 | 1016.0 |
| 20260507110611 | 7 | 214 | 1.6 | 4.8 | 0.00 | 0.00 | 0.00 | 72 | 1016.0 |
| 20260507110110 | 7 | 248 | 1.6 | 4.8 | 0.00 | 0.00 | 0.00 | 73 | 1015.9 |
| 20260507105555 | 7 | 210 | 1.6 | 4.8 | 0.00 | 0.00 | 0.00 | 73 | 1015.8 |
| 20260507105055 | 7 | 0 | 1.6 | 4.8 | 0.00 | 0.00 | 0.00 | 74 | 1015.8 |
| 20260507104041 | 7 | 217 | 1.6 | 6.4 | 0.00 | 0.00 | 0.00 | 73 | 1015.9 |
| 20260507103542 | 7 | 240 | 1.6 | 6.4 | 0.00 | 0.00 | 0.00 | 73 | 1015.9 |
| 20260507102041 | 7 | 208 | 1.6 | 4.8 | 0.00 | 0.00 | 0.00 | 73 | 1016.0 |
| 20260507101541 | 7 | 0 | 1.6 | 4.8 | 0.00 | 0.00 | 0.00 | 72 | 1016.0 |
| 20260507101041 | 7 | 257 | 1.6 | 6.4 | 0.00 | 0.00 | 0.00 | 71 | 1016.0 |
| 20260507100542 | 7 | 195 | 3.2 | 6.4 | 0.00 | 0.00 | 0.00 | 71 | 1016.0 |
| 20260507100043 | 7 | 190 | 1.6 | 4.8 | 0.00 | 0.00 | 0.00 | 70 | 1016.0 |
| 20260507095541 | 8 | 185 | 1.6 | 4.8 | 0.00 | 0.00 | 0.00 | 70 | 1016.1 |
| 20260507095041 | 8 | 0 | 1.6 | 4.8 | 0.00 | 0.00 | 0.00 | 70 | 1016.1 |
| 20260507094528 | 8 | 176 | 1.6 | 4.8 | 0.00 | 0.00 | 0.00 | 69 | 1016.1 |
| 20260507094013 | 8 | 190 | 1.6 | 4.8 | 0.00 | 0.00 | 0.00 | 68 | 1016.1 |
| 20260507093512 | 8 | 0 | 1.6 | 6.4 | 0.00 | 0.00 | 0.00 | 68 | 1016.2 |
| 20260507093012 | 8 | 219 | 1.6 | 6.4 | 0.00 | 0.00 | 0.00 | 68 | 1016.2 |
| 20260507092511 | 8 | 0 | 1.6 | 4.8 | 0.00 | 0.00 | 0.00 | 68 | 1016.2 |
| 20260507092011 | 8 | 247 | 1.6 | 4.8 | 0.00 | 0.00 | 0.00 | 67 | 1016.2 |
| 20260507091513 | 8 | 0 | 1.6 | 4.8 | 0.00 | 0.00 | 0.00 | 66 | 1016.2 |
| 20260507091012 | 8 | 205 | 1.6 | 4.8 | 0.00 | 0.00 | 0.00 | 66 | 1016.3 |
| 20260507090012 | 8 | 0 | 1.6 | 4.8 | 0.00 | 0.00 | 0.00 | 64 | 1016.3 |
| 20260507085512 | 8 | 219 | 1.6 | 6.4 | 0.00 | 0.00 | 0.00 | 64 | 1016.3 |
| 20260507085013 | 8 | 209 | 1.6 | 6.4 | 0.00 | 0.00 | 0.00 | 62 | 1016.3 |
| 20260507084513 | 8 | 193 | 1.6 | 4.8 | 0.00 | 0.00 | 0.00 | 61 | 1016.3 |
| 20260507083513 | 8 | 284 | 1.6 | 6.4 | 0.00 | 0.00 | 0.00 | 61 | 1016.4 |
| 20260507083013 | 8 | 211 | 1.6 | 4.8 | 0.00 | 0.00 | 0.00 | 60 | 1016.4 |
| 20260507082513 | 8 | 0 | 1.6 | 4.8 | 0.00 | 0.00 | 0.00 | 59 | 1016.4 |
| 20260507082014 | 8 | 216 | 1.6 | 4.8 | 0.00 | 0.00 | 0.00 | 59 | 1016.5 |
| 20260507081512 | 8 | 0 | 1.6 | 8.0 | 0.00 | 0.00 | 0.00 | 60 | 1016.5 |
| 20260507080458 | 8 | 240 | 1.6 | 4.8 | 0.00 | 0.00 | 0.00 | 60 | 1016.4 |
| 20260507075957 | 8 | 244 | 1.6 | 3.2 | 0.00 | 0.00 | 0.00 | 59 | 1016.4 |
| 20260507075459 | 8 | 224 | 1.6 | 3.2 | 0.00 | 0.00 | 0.00 | 60 | 1016.4 |
| 20260507074958 | 8 | 0 | 1.6 | 4.8 | 0.00 | 0.00 | 0.00 | 59 | 1016.3 |
| 20260507074458 | 8 | 135 | 3.2 | 6.4 | 0.00 | 0.00 | 0.00 | 57 | 1016.4 |
| 20260507074000 | 8 | 185 | 3.2 | 6.4 | 0.00 | 0.00 | 0.00 | 58 | 1016.4 |
| 20260507072959 | 8 | 0 | 1.6 | 6.4 | 0.00 | 0.00 | 0.00 | 59 | 1016.5 |
| 20260507072500 | 8 | 0 | 1.6 | 4.8 | 0.00 | 0.00 | 0.00 | 58 | 1016.5 |
| 20260507071959 | 8 | 0 | 1.6 | 6.4 | 0.00 | 0.00 | 0.00 | 59 | 1016.6 |
| 20260507065957 | 8 | 219 | 1.6 | 9.7 | 0.00 | 0.00 | 0.00 | 59 | 1016.8 |
| 20260507065456 | 8 | 299 | 1.6 | 9.7 | 0.00 | 0.00 | 0.00 | 59 | 1016.9 |
| 20260507063450 | 9 | 216 | 1.6 | 6.4 | 0.00 | 0.00 | 0.00 | 58 | 1017.0 |
| 20260507062449 | 9 | 0 | 0.0 | 6.4 | 0.00 | 0.00 | 0.00 | 58 | 1017.1 |
| 20260507061945 | 9 | 227 | 0.0 | 6.4 | 0.00 | 0.00 | 0.00 | 59 | 1017.1 |
| 20260507061445 | 9 | 0 | 0.0 | 4.8 | 0.00 | 0.00 | 0.00 | 59 | 1017.1 |
| 20260507060946 | 9 | 184 | 1.6 | 4.8 | 0.00 | 0.00 | 0.00 | 60 | 1017.1 |
| 20260507060445 | 9 | 0 | 1.6 | 4.8 | 0.00 | 0.00 | 0.00 | 60 | 1017.1 |
| 20260507055945 | 9 | 209 | 1.6 | 6.4 | 0.00 | 0.00 | 0.00 | 61 | 1017.1 |
| 20260507055445 | 9 | 213 | 1.6 | 6.4 | 0.00 | 0.00 | 0.00 | 61 | 1017.1 |
| 20260507054945 | 9 | 254 | 1.6 | 4.8 | 0.00 | 0.00 | 0.00 | 61 | 1017.1 |
| 20260507054445 | 9 | 219 | 1.6 | 6.4 | 0.00 | 0.00 | 0.00 | 59 | 1017.1 |
| 20260507053945 | 9 | 217 | 1.6 | 6.4 | 0.00 | 0.00 | 0.00 | 61 | 1017.1 |
| 20260507052443 | 10 | 246 | 1.6 | 6.4 | 0.00 | 0.00 | 0.00 | 60 | 1017.1 |
| 20260507051943 | 10 | 0 | 1.6 | 6.4 | 0.00 | 0.03 | 0.00 | 59 | 1017.1 |
| 20260507051442 | 10 | 190 | 1.6 | 6.4 | 0.00 | 0.05 | 0.00 | 58 | 1017.1 |
| 20260507050940 | 10 | 204 | 1.6 | 6.4 | 0.00 | 0.05 | 0.00 | 58 | 1017.1 |
| 20260507050440 | 10 | 200 | 3.2 | 6.4 | 0.00 | 0.05 | 0.00 | 56 | 1017.1 |
| 20260507045939 | 10 | 232 | 1.6 | 6.4 | 0.00 | 0.05 | 0.05 | 57 | 1017.1 |
| 20260507045440 | 10 | 199 | 1.6 | 6.4 | 0.00 | 0.05 | 0.05 | 57 | 1017.1 |
| 20260507044941 | 10 | 0 | 0.0 | 4.8 | 0.00 | 0.05 | 0.05 | 59 | 1017.2 |
| 20260507044440 | 9 | 0 | 0.0 | 3.2 | 0.00 | 0.05 | 0.05 | 57 | 1017.1 |
| 20260507043940 | 9 | 0 | 0.0 | 3.2 | 0.00 | 0.05 | 0.05 | 59 | 1017.1 |
| 20260507043440 | 9 | 0 | 0.0 | 3.2 | 0.00 | 0.08 | 0.05 | 59 | 1017.1 |
| 20260507042940 | 10 | 0 | 0.0 | 3.2 | 0.00 | 0.08 | 0.05 | 59 | 1017.2 |
| 20260507042440 | 10 | 0 | 0.0 | 3.2 | 0.00 | 0.10 | 0.05 | 57 | 1017.1 |
| 20260507041441 | 10 | 0 | 0.0 | 3.2 | 0.00 | 0.13 | 0.05 | 55 | 1017.1 |
| 20260507040941 | 10 | 0 | 0.0 | 3.2 | 0.00 | 0.13 | 0.05 | 55 | 1017.2 |
| 20260507040441 | 9 | 0 | 0.0 | 1.6 | 0.00 | 0.13 | 0.05 | 54 | 1017.3 |
| 20260507035940 | 9 | 0 | 0.0 | 1.6 | 0.00 | 0.15 | 0.05 | 54 | 1017.3 |
| 20260507035438 | 9 | 0 | 0.0 | 1.6 | 0.00 | 0.15 | 0.05 | 55 | 1017.3 |
| 20260507034939 | 9 | 0 | 0.0 | 1.6 | 0.00 | 0.15 | 0.05 | 56 | 1017.3 |
| 20260507034438 | 9 | 0 | 0.0 | 1.6 | 0.00 | 0.15 | 0.05 | 56 | 1017.3 |
| 20260507033939 | 9 | 0 | 0.0 | 0.0 | 0.00 | 0.15 | 0.05 | 54 | 1017.4 |
| 20260507033438 | 9 | 0 | 0.0 | 3.2 | 0.00 | 0.15 | 0.05 | 55 | 1017.4 |
| 20260507032938 | 9 | 0 | 0.0 | 3.2 | 0.00 | 0.15 | 0.05 | 58 | 1017.4 |
| 20260507031938 | 9 | 0 | 0.0 | 3.2 | 0.00 | 0.15 | 0.05 | 56 | 1017.2 |
| 20260507031440 | 9 | 0 | 0.0 | 3.2 | 0.00 | 0.15 | 0.05 | 57 | 1017.2 |
| 20260507030436 | 9 | 145 | 0.0 | 3.2 | 0.00 | 0.15 | 0.05 | 55 | 1017.3 |
| 20260507025937 | 9 | 0 | 0.0 | 3.2 | 0.00 | 0.15 | 0.05 | 58 | 1017.3 |
| 20260507024435 | 9 | 0 | 0.0 | 1.6 | 0.00 | 0.15 | 0.05 | 56 | 1017.2 |
| 20260507023936 | 9 | 0 | 0.0 | 1.6 | 0.00 | 0.15 | 0.05 | 56 | 1017.1 |
| 20260507023433 | 9 | 0 | 0.0 | 1.6 | 0.00 | 0.15 | 0.05 | 56 | 1017.0 |
| 20260507022933 | 9 | 0 | 0.0 | 1.6 | 0.00 | 0.15 | 0.05 | 57 | 1017.1 |
| 20260507022433 | 9 | 0 | 0.0 | 0.0 | 0.00 | 0.15 | 0.05 | 58 | 1017.0 |
| 20260507021933 | 9 | 0 | 0.0 | 1.6 | 0.00 | 0.15 | 0.05 | 61 | 1017.0 |
| 20260507020433 | 10 | 0 | 0.0 | 1.6 | 0.00 | 0.15 | 0.05 | 57 | 1016.8 |
| 20260507015933 | 10 | 0 | 0.0 | 3.2 | 0.00 | 0.15 | 0.05 | 57 | 1016.8 |
| 20260507015434 | 10 | 0 | 0.0 | 3.2 | 0.00 | 0.15 | 0.05 | 52 | 1016.8 |
| 20260507014933 | 10 | 0 | 0.0 | 1.6 | 0.00 | 0.15 | 0.05 | 54 | 1016.8 |
| 20260507014434 | 10 | 0 | 0.0 | 0.0 | 0.00 | 0.15 | 0.05 | 55 | 1016.7 |
| 20260507013934 | 10 | 0 | 0.0 | 0.0 | 0.00 | 0.15 | 0.05 | 52 | 1016.7 |
| 20260507013433 | 10 | 0 | 0.0 | 0.0 | 0.00 | 0.15 | 0.05 | 51 | 1016.7 |
| 20260507012934 | 10 | 0 | 0.0 | 0.0 | 0.00 | 0.15 | 0.05 | 50 | 1016.7 |
| 20260507011431 | 11 | 0 | 0.0 | 0.0 | 0.00 | 0.15 | 0.05 | 46 | 1016.6 |
| 20260507010931 | 11 | 0 | 0.0 | 0.0 | 0.00 | 0.15 | 0.05 | 45 | 1016.5 |
| 20260507010430 | 12 | 0 | 0.0 | 0.0 | 0.00 | 0.15 | 0.05 | 46 | 1016.5 |
| 20260507005931 | 12 | 0 | 0.0 | 0.0 | 0.00 | 0.15 | 0.05 | 45 | 1016.5 |
| 20260507005431 | 12 | 0 | 0.0 | 0.0 | 0.00 | 0.15 | 0.05 | 44 | 1016.5 |
| 20260507004931 | 12 | 0 | 0.0 | 0.0 | 0.00 | 0.15 | 0.05 | 44 | 1016.5 |
| 20260507004431 | 13 | 0 | 0.0 | 0.0 | 0.00 | 0.15 | 0.05 | 43 | 1016.6 |
| 20260507003931 | 13 | 0 | 0.0 | 0.0 | 0.00 | 0.15 | 0.05 | 46 | 1016.5 |
| 20260507003432 | 13 | 0 | 0.0 | 0.0 | 0.00 | 0.15 | 0.05 | 45 | 1016.6 |
| 20260507002931 | 13 | 0 | 0.0 | 1.6 | 0.00 | 0.15 | 0.05 | 42 | 1016.5 |
| 20260507002431 | 14 | 0 | 0.0 | 6.4 | 0.00 | 0.15 | 0.05 | 39 | 1016.5 |
| 20260507001429 | 14 | 313 | 1.6 | 6.4 | 0.00 | 0.15 | 0.05 | 36 | 1016.5 |
| 20260507000930 | 14 | 292 | 1.6 | 6.4 | 0.00 | 0.15 | 0.05 | 36 | 1016.5 |
| 20260507000430 | 14 | 0 | 1.6 | 9.7 | 0.00 | 0.15 | 0.05 | 38 | 1016.5 |
| 20260506235930 | 15 | 2 | 1.6 | 9.7 | 0.00 | 0.15 | 0.05 | 35 | 1016.5 |
| 20260506235429 | 15 | 0 | 1.6 | 6.4 | 0.00 | 0.15 | 0.05 | 36 | 1016.5 |
| 20260506234928 | 15 | 322 | 1.6 | 6.4 | 0.00 | 0.15 | 0.05 | 34 | 1016.5 |
| 20260506234431 | 15 | 65 | 1.6 | 6.4 | 0.00 | 0.15 | 0.05 | 34 | 1016.6 |
| 20260506233929 | 16 | 65 | 1.6 | 11.3 | 0.00 | 0.15 | 0.05 | 34 | 1016.6 |
| 20260506233431 | 16 | 1 | 3.2 | 11.3 | 0.00 | 0.15 | 0.05 | 33 | 1016.6 |
| 20260506232927 | 16 | 28 | 3.2 | 11.3 | 0.00 | 0.15 | 0.05 | 33 | 1016.5 |
| 20260506232427 | 16 | 136 | 3.2 | 9.7 | 0.00 | 0.15 | 0.05 | 33 | 1016.5 |
| 20260506231923 | 16 | 339 | 3.2 | 9.7 | 0.00 | 0.15 | 0.05 | 32 | 1016.6 |
| 20260506231424 | 16 | 347 | 3.2 | 11.3 | 0.00 | 0.15 | 0.05 | 32 | 1016.5 |
| 20260506230920 | 17 | 338 | 3.2 | 11.3 | 0.00 | 0.15 | 0.05 | 31 | 1016.6 |
| 20260506225922 | 17 | 43 | 1.6 | 6.4 | 0.00 | 0.15 | 0.05 | 33 | 1016.6 |
| 20260506225422 | 17 | 0 | 0.0 | 6.4 | 0.00 | 0.15 | 0.05 | 32 | 1016.5 |
| 20260506224922 | 17 | 0 | 1.6 | 6.4 | 0.00 | 0.15 | 0.05 | 35 | 1016.6 |
| 20260506224423 | 17 | 199 | 1.6 | 11.3 | 0.00 | 0.15 | 0.05 | 34 | 1016.5 |
| 20260506223922 | 17 | 0 | 3.2 | 11.3 | 0.00 | 0.15 | 0.05 | 32 | 1016.6 |
| 20260506222422 | 16 | 336 | 3.2 | 9.7 | 0.00 | 0.15 | 0.05 | 34 | 1016.6 |
| 20260506221919 | 16 | 318 | 3.2 | 11.3 | 0.00 | 0.15 | 0.05 | 35 | 1016.6 |
| 20260506221421 | 16 | 341 | 3.2 | 11.3 | 0.00 | 0.15 | 0.05 | 34 | 1016.7 |
| 20260506220917 | 16 | 322 | 3.2 | 11.3 | 0.00 | 0.15 | 0.05 | 33 | 1016.7 |
| 20260506220416 | 16 | 313 | 4.8 | 11.3 | 0.00 | 0.15 | 0.05 | 33 | 1016.7 |
| 20260506215916 | 16 | 359 | 4.8 | 12.9 | 0.00 | 0.15 | 0.05 | 34 | 1016.7 |
| 20260506215416 | 16 | 293 | 4.8 | 14.5 | 0.00 | 0.15 | 0.05 | 33 | 1016.7 |
| 20260506214913 | 16 | 321 | 4.8 | 14.5 | 0.00 | 0.15 | 0.05 | 33 | 1016.6 |
| 20260506214413 | 16 | 58 | 4.8 | 12.9 | 0.00 | 0.15 | 0.05 | 34 | 1016.8 |
| 20260506213913 | 16 | 327 | 4.8 | 12.9 | 0.00 | 0.15 | 0.05 | 35 | 1016.8 |
| 20260506212914 | 16 | 349 | 3.2 | 11.3 | 0.00 | 0.15 | 0.05 | 33 | 1017.0 |
| 20260506212413 | 16 | 45 | 3.2 | 12.9 | 0.00 | 0.15 | 0.05 | 34 | 1017.0 |
| 20260506211913 | 16 | 0 | 3.2 | 12.9 | 0.00 | 0.15 | 0.05 | 31 | 1017.0 |
| 20260506210913 | 16 | 330 | 4.8 | 14.5 | 0.00 | 0.15 | 0.05 | 35 | 1017.2 |
| 20260506210410 | 17 | 345 | 3.2 | 14.5 | 0.00 | 0.15 | 0.05 | 36 | 1017.3 |
| 20260506205910 | 17 | 0 | 3.2 | 9.7 | 0.00 | 0.15 | 0.05 | 37 | 1017.3 |
| 20260506205409 | 17 | 28 | 3.2 | 11.3 | 0.00 | 0.15 | 0.05 | 35 | 1017.5 |
| 20260506204907 | 16 | 0 | 4.8 | 14.5 | 0.00 | 0.15 | 0.05 | 37 | 1017.5 |
| 20260506204404 | 16 | 22 | 3.2 | 14.5 | 0.00 | 0.15 | 0.05 | 37 | 1017.6 |
| 20260506203904 | 16 | 312 | 3.2 | 11.3 | 0.00 | 0.15 | 0.05 | 37 | 1017.6 |
| 20260506203405 | 16 | 0 | 3.2 | 9.7 | 0.00 | 0.15 | 0.05 | 35 | 1017.7 |
| 20260506202911 | 16 | 85 | 3.2 | 8.0 | 0.00 | 0.15 | 0.05 | 34 | 1017.7 |
| 20260506202405 | 16 | 337 | 3.2 | 11.3 | 0.00 | 0.15 | 0.05 | 34 | 1017.8 |
| 20260506201905 | 16 | 35 | 4.8 | 12.9 | 0.00 | 0.15 | 0.05 | 33 | 1017.8 |
| 20260506201405 | 16 | 323 | 3.2 | 12.9 | 0.00 | 0.15 | 0.05 | 34 | 1017.8 |
| 20260506200905 | 16 | 358 | 3.2 | 14.5 | 0.00 | 0.15 | 0.05 | 34 | 1017.9 |
| 20260506195905 | 16 | 0 | 3.2 | 9.7 | 0.00 | 0.15 | 0.05 | 35 | 1017.9 |
| 20260506194402 | 16 | 113 | 3.2 | 11.3 | 0.00 | 0.15 | 0.05 | 34 | 1018.0 |
| 20260506193904 | 16 | 59 | 3.2 | 11.3 | 0.00 | 0.15 | 0.05 | 33 | 1018.1 |
| 20260506193403 | 16 | 41 | 3.2 | 9.7 | 0.00 | 0.15 | 0.05 | 33 | 1018.0 |
| 20260506192902 | 15 | 0 | 4.8 | 11.3 | 0.00 | 0.15 | 0.05 | 38 | 1018.0 |
| 20260506191900 | 15 | 36 | 3.2 | 12.9 | 0.00 | 0.15 | 0.05 | 38 | 1018.1 |
| 20260506190900 | 15 | 46 | 4.8 | 14.5 | 0.00 | 0.15 | 0.05 | 34 | 1018.1 |